sensor_id;sensor_type;location;lat;lon;timestamp;temperature;humidity
46488;DHT22;32202;48.780;9.204;2022-10-14T00:00:16;14.30;99.90
46488;DHT22;32202;48.780;9.204;2022-10-14T00:02:42;14.30;99.90
46488;DHT22;32202;48.780;9.204;2022-10-14T00:05:08;14.30;99.90
46488;DHT22;32202;48.780;9.204;2022-10-14T00:07:35;14.30;99.90
46488;DHT22;32202;48.780;9.204;2022-10-14T00:10:01;14.30;99.90
46488;DHT22;32202;48.780;9.204;2022-10-14T00:12:28;14.40;99.90
46488;DHT22;32202;48.780;9.204;2022-10-14T00:14:54;14.40;99.90
46488;DHT22;32202;48.780;9.204;2022-10-14T00:17:20;14.40;99.90
46488;DHT22;32202;48.780;9.204;2022-10-14T00:19:46;14.40;99.90
46488;DHT22;32202;48.780;9.204;2022-10-14T00:22:12;14.50;99.90
46488;DHT22;32202;48.780;9.204;2022-10-14T00:24:38;14.50;99.90
46488;DHT22;32202;48.780;9.204;2022-10-14T00:27:04;14.40;99.90
46488;DHT22;32202;48.780;9.204;2022-10-14T00:29:30;14.50;99.90
46488;DHT22;32202;48.780;9.204;2022-10-14T00:31:55;14.40;99.90
46488;DHT22;32202;48.780;9.204;2022-10-14T00:34:21;14.40;99.90
46488;DHT22;32202;48.780;9.204;2022-10-14T00:36:47;14.40;99.90
46488;DHT22;32202;48.780;9.204;2022-10-14T00:39:12;14.40;99.90
46488;DHT22;32202;48.780;9.204;2022-10-14T00:41:39;14.40;99.90
46488;DHT22;32202;48.780;9.204;2022-10-14T00:46:41;14.30;99.90
46488;DHT22;32202;48.780;9.204;2022-10-14T00:52:16;14.30;99.90
46488;DHT22;32202;48.780;9.204;2022-10-14T00:55:05;14.30;99.90
46488;DHT22;32202;48.780;9.204;2022-10-14T00:57:32;14.30;99.90
46488;DHT22;32202;48.780;9.204;2022-10-14T01:00:03;14.20;99.90
46488;DHT22;32202;48.780;9.204;2022-10-14T01:02:29;14.30;99.90
46488;DHT22;32202;48.780;9.204;2022-10-14T01:04:55;14.30;99.90
46488;DHT22;32202;48.780;9.204;2022-10-14T01:10:23;14.30;99.90
46488;DHT22;32202;48.780;9.204;2022-10-14T01:13:24;14.20;99.90
46488;DHT22;32202;48.780;9.204;2022-10-14T01:16:05;14.30;99.90
46488;DHT22;32202;48.780;9.204;2022-10-14T01:27:11;14.40;99.90
46488;DHT22;32202;48.780;9.204;2022-10-14T01:40:49;14.60;99.90
46488;DHT22;32202;48.780;9.204;2022-10-14T01:43:19;14.60;99.90
46488;DHT22;32202;48.780;9.204;2022-10-14T01:45:47;14.60;99.90
46488;DHT22;32202;48.780;9.204;2022-10-14T01:48:16;14.50;99.90
46488;DHT22;32202;48.780;9.204;2022-10-14T01:50:45;14.50;99.90
46488;DHT22;32202;48.780;9.204;2022-10-14T01:53:22;14.50;99.90
46488;DHT22;32202;48.780;9.204;2022-10-14T01:55:51;14.50;99.90
46488;DHT22;32202;48.780;9.204;2022-10-14T01:58:19;14.60;99.90
46488;DHT22;32202;48.780;9.204;2022-10-14T02:00:46;14.50;99.90
46488;DHT22;32202;48.780;9.204;2022-10-14T02:03:12;14.60;99.90
46488;DHT22;32202;48.780;9.204;2022-10-14T02:08:26;14.60;99.90
46488;DHT22;32202;48.780;9.204;2022-10-14T02:11:08;14.50;99.90
46488;DHT22;32202;48.780;9.204;2022-10-14T02:17:12;14.40;99.90
46488;DHT22;32202;48.780;9.204;2022-10-14T02:20:35;14.40;99.90
46488;DHT22;32202;48.780;9.204;2022-10-14T02:23:05;14.30;99.90
46488;DHT22;32202;48.780;9.204;2022-10-14T02:25:34;14.30;99.90
46488;DHT22;32202;48.780;9.204;2022-10-14T02:28:02;14.20;99.90
46488;DHT22;32202;48.780;9.204;2022-10-14T02:30:31;14.20;99.90
46488;DHT22;32202;48.780;9.204;2022-10-14T02:32:59;14.20;99.90
46488;DHT22;32202;48.780;9.204;2022-10-14T02:35:25;14.20;99.90
46488;DHT22;32202;48.780;9.204;2022-10-14T02:37:52;14.20;99.90
46488;DHT22;32202;48.780;9.204;2022-10-14T02:40:32;14.20;99.90
46488;DHT22;32202;48.780;9.204;2022-10-14T02:43:00;14.30;99.90
46488;DHT22;32202;48.780;9.204;2022-10-14T02:45:26;14.30;99.90
46488;DHT22;32202;48.780;9.204;2022-10-14T02:47:52;14.30;99.90
46488;DHT22;32202;48.780;9.204;2022-10-14T02:50:19;14.30;99.90
46488;DHT22;32202;48.780;9.204;2022-10-14T02:52:44;14.20;99.90
46488;DHT22;32202;48.780;9.204;2022-10-14T02:55:10;14.30;99.90
46488;DHT22;32202;48.780;9.204;2022-10-14T02:57:35;14.30;99.90
46488;DHT22;32202;48.780;9.204;2022-10-14T03:00:02;14.20;99.90
46488;DHT22;32202;48.780;9.204;2022-10-14T03:02:28;14.20;99.90
46488;DHT22;32202;48.780;9.204;2022-10-14T03:04:54;14.30;99.90
46488;DHT22;32202;48.780;9.204;2022-10-14T03:07:21;14.20;99.90
46488;DHT22;32202;48.780;9.204;2022-10-14T03:09:47;14.20;99.90
46488;DHT22;32202;48.780;9.204;2022-10-14T03:12:12;14.20;99.90
46488;DHT22;32202;48.780;9.204;2022-10-14T03:14:38;14.10;99.90
46488;DHT22;32202;48.780;9.204;2022-10-14T03:17:03;14.10;99.90
46488;DHT22;32202;48.780;9.204;2022-10-14T03:19:29;14.10;99.90
46488;DHT22;32202;48.780;9.204;2022-10-14T03:21:54;14.10;99.90
46488;DHT22;32202;48.780;9.204;2022-10-14T03:24:20;14.00;99.90
46488;DHT22;32202;48.780;9.204;2022-10-14T03:26:46;14.00;99.90
46488;DHT22;32202;48.780;9.204;2022-10-14T03:29:11;13.90;99.90
46488;DHT22;32202;48.780;9.204;2022-10-14T03:31:37;13.80;99.90
46488;DHT22;32202;48.780;9.204;2022-10-14T03:34:02;13.80;99.90
46488;DHT22;32202;48.780;9.204;2022-10-14T03:36:28;13.80;99.90
46488;DHT22;32202;48.780;9.204;2022-10-14T03:38:53;13.80;99.90
46488;DHT22;32202;48.780;9.204;2022-10-14T03:41:19;13.80;99.90
46488;DHT22;32202;48.780;9.204;2022-10-14T03:43:45;13.80;99.90
46488;DHT22;32202;48.780;9.204;2022-10-14T03:46:10;13.80;99.90
46488;DHT22;32202;48.780;9.204;2022-10-14T03:48:36;13.80;99.90
46488;DHT22;32202;48.780;9.204;2022-10-14T03:51:01;13.80;99.90
46488;DHT22;32202;48.780;9.204;2022-10-14T03:53:27;13.80;99.90
46488;DHT22;32202;48.780;9.204;2022-10-14T03:55:53;13.80;99.90
46488;DHT22;32202;48.780;9.204;2022-10-14T03:58:18;13.80;99.90
46488;DHT22;32202;48.780;9.204;2022-10-14T04:00:44;13.80;99.90
46488;DHT22;32202;48.780;9.204;2022-10-14T04:03:09;13.80;99.90
46488;DHT22;32202;48.780;9.204;2022-10-14T04:05:35;13.80;99.90
46488;DHT22;32202;48.780;9.204;2022-10-14T04:08:01;13.80;99.90
46488;DHT22;32202;48.780;9.204;2022-10-14T04:10:27;13.80;99.90
46488;DHT22;32202;48.780;9.204;2022-10-14T04:12:53;13.70;99.90
46488;DHT22;32202;48.780;9.204;2022-10-14T04:15:19;13.70;99.90
46488;DHT22;32202;48.780;9.204;2022-10-14T04:17:45;13.70;99.90
46488;DHT22;32202;48.780;9.204;2022-10-14T04:20:11;13.70;99.90
46488;DHT22;32202;48.780;9.204;2022-10-14T04:22:36;13.50;99.90
46488;DHT22;32202;48.780;9.204;2022-10-14T04:25:02;13.40;99.90
46488;DHT22;32202;48.780;9.204;2022-10-14T04:27:28;13.40;99.90
46488;DHT22;32202;48.780;9.204;2022-10-14T04:29:54;13.30;99.90
46488;DHT22;32202;48.780;9.204;2022-10-14T04:32:19;13.40;99.90
46488;DHT22;32202;48.780;9.204;2022-10-14T04:34:45;13.40;99.90
46488;DHT22;32202;48.780;9.204;2022-10-14T04:37:11;13.40;99.90
46488;DHT22;32202;48.780;9.204;2022-10-14T04:39:36;13.50;99.90
46488;DHT22;32202;48.780;9.204;2022-10-14T04:42:02;13.60;99.90
46488;DHT22;32202;48.780;9.204;2022-10-14T04:44:28;13.60;99.90
46488;DHT22;32202;48.780;9.204;2022-10-14T04:46:53;13.60;99.90
46488;DHT22;32202;48.780;9.204;2022-10-14T04:49:19;13.60;99.90
46488;DHT22;32202;48.780;9.204;2022-10-14T04:51:45;13.60;99.90
46488;DHT22;32202;48.780;9.204;2022-10-14T04:54:10;13.50;99.90
46488;DHT22;32202;48.780;9.204;2022-10-14T04:56:36;13.50;99.90
46488;DHT22;32202;48.780;9.204;2022-10-14T04:59:03;13.60;99.90
46488;DHT22;32202;48.780;9.204;2022-10-14T05:01:30;13.60;99.90
46488;DHT22;32202;48.780;9.204;2022-10-14T05:03:55;13.60;99.90
46488;DHT22;32202;48.780;9.204;2022-10-14T05:06:21;13.60;99.90
46488;DHT22;32202;48.780;9.204;2022-10-14T05:08:46;13.60;99.90
46488;DHT22;32202;48.780;9.204;2022-10-14T05:11:12;13.70;99.90
46488;DHT22;32202;48.780;9.204;2022-10-14T05:13:38;13.70;99.90
46488;DHT22;32202;48.780;9.204;2022-10-14T05:16:04;13.70;99.90
46488;DHT22;32202;48.780;9.204;2022-10-14T05:18:30;13.80;99.90
46488;DHT22;32202;48.780;9.204;2022-10-14T05:20:59;13.80;99.90
46488;DHT22;32202;48.780;9.204;2022-10-14T05:23:24;13.80;99.90
46488;DHT22;32202;48.780;9.204;2022-10-14T05:25:50;13.80;99.90
46488;DHT22;32202;48.780;9.204;2022-10-14T05:28:18;13.80;99.90
46488;DHT22;32202;48.780;9.204;2022-10-14T05:30:44;13.80;99.90
46488;DHT22;32202;48.780;9.204;2022-10-14T05:33:10;13.90;99.90
46488;DHT22;32202;48.780;9.204;2022-10-14T05:35:36;13.90;99.90
46488;DHT22;32202;48.780;9.204;2022-10-14T05:38:02;13.90;99.90
46488;DHT22;32202;48.780;9.204;2022-10-14T05:40:28;13.90;99.90
46488;DHT22;32202;48.780;9.204;2022-10-14T05:42:54;13.90;99.90
46488;DHT22;32202;48.780;9.204;2022-10-14T05:45:19;13.90;99.90
46488;DHT22;32202;48.780;9.204;2022-10-14T05:47:45;13.90;99.90
46488;DHT22;32202;48.780;9.204;2022-10-14T05:50:11;13.90;99.90
46488;DHT22;32202;48.780;9.204;2022-10-14T05:52:38;13.90;99.90
46488;DHT22;32202;48.780;9.204;2022-10-14T05:55:05;14.00;99.90
46488;DHT22;32202;48.780;9.204;2022-10-14T05:57:31;14.00;99.90
46488;DHT22;32202;48.780;9.204;2022-10-14T05:59:58;13.90;99.90
46488;DHT22;32202;48.780;9.204;2022-10-14T06:02:24;14.00;99.90
46488;DHT22;32202;48.780;9.204;2022-10-14T06:04:49;13.90;99.90
46488;DHT22;32202;48.780;9.204;2022-10-14T06:07:15;14.00;99.90
46488;DHT22;32202;48.780;9.204;2022-10-14T06:09:41;14.00;99.90
46488;DHT22;32202;48.780;9.204;2022-10-14T06:12:07;14.00;99.90
46488;DHT22;32202;48.780;9.204;2022-10-14T06:14:34;14.00;99.90
46488;DHT22;32202;48.780;9.204;2022-10-14T06:17:01;14.00;99.90
46488;DHT22;32202;48.780;9.204;2022-10-14T06:19:26;14.00;99.90
46488;DHT22;32202;48.780;9.204;2022-10-14T06:21:52;14.00;99.90
46488;DHT22;32202;48.780;9.204;2022-10-14T06:24:18;14.10;99.90
46488;DHT22;32202;48.780;9.204;2022-10-14T06:26:43;14.10;99.90
46488;DHT22;32202;48.780;9.204;2022-10-14T06:29:10;14.20;99.90
46488;DHT22;32202;48.780;9.204;2022-10-14T06:31:35;14.20;99.90
46488;DHT22;32202;48.780;9.204;2022-10-14T06:34:04;14.20;99.90
46488;DHT22;32202;48.780;9.204;2022-10-14T06:36:30;14.20;99.90
46488;DHT22;32202;48.780;9.204;2022-10-14T06:38:55;14.20;99.90
46488;DHT22;32202;48.780;9.204;2022-10-14T06:41:21;14.20;99.90
46488;DHT22;32202;48.780;9.204;2022-10-14T06:43:47;14.30;99.90
46488;DHT22;32202;48.780;9.204;2022-10-14T06:46:12;14.40;99.90
46488;DHT22;32202;48.780;9.204;2022-10-14T06:48:38;14.40;99.90
46488;DHT22;32202;48.780;9.204;2022-10-14T06:51:03;14.40;99.90
46488;DHT22;32202;48.780;9.204;2022-10-14T06:53:29;14.40;99.90
46488;DHT22;32202;48.780;9.204;2022-10-14T06:56:04;14.50;99.90
46488;DHT22;32202;48.780;9.204;2022-10-14T06:58:30;14.50;99.90
46488;DHT22;32202;48.780;9.204;2022-10-14T07:01:04;14.60;99.90
46488;DHT22;32202;48.780;9.204;2022-10-14T07:03:30;14.70;99.90
46488;DHT22;32202;48.780;9.204;2022-10-14T07:05:56;14.80;99.90
46488;DHT22;32202;48.780;9.204;2022-10-14T07:08:21;14.90;99.90
46488;DHT22;32202;48.780;9.204;2022-10-14T07:10:47;15.00;99.90
46488;DHT22;32202;48.780;9.204;2022-10-14T07:13:13;15.10;99.90
46488;DHT22;32202;48.780;9.204;2022-10-14T07:15:39;15.10;99.90
46488;DHT22;32202;48.780;9.204;2022-10-14T07:18:05;15.10;99.90
46488;DHT22;32202;48.780;9.204;2022-10-14T07:20:32;15.20;99.90
46488;DHT22;32202;48.780;9.204;2022-10-14T07:22:59;15.10;99.90
46488;DHT22;32202;48.780;9.204;2022-10-14T07:25:24;15.10;99.90
46488;DHT22;32202;48.780;9.204;2022-10-14T07:27:51;15.10;99.90
46488;DHT22;32202;48.780;9.204;2022-10-14T07:30:17;15.00;99.90
46488;DHT22;32202;48.780;9.204;2022-10-14T07:32:43;15.00;99.90
46488;DHT22;32202;48.780;9.204;2022-10-14T07:35:08;15.10;99.90
46488;DHT22;32202;48.780;9.204;2022-10-14T07:37:34;15.10;99.90
46488;DHT22;32202;48.780;9.204;2022-10-14T07:40:00;15.30;99.90
46488;DHT22;32202;48.780;9.204;2022-10-14T07:42:25;15.50;99.90
46488;DHT22;32202;48.780;9.204;2022-10-14T07:44:51;15.70;99.90
46488;DHT22;32202;48.780;9.204;2022-10-14T07:47:18;15.90;99.90
46488;DHT22;32202;48.780;9.204;2022-10-14T07:49:44;16.20;99.90
46488;DHT22;32202;48.780;9.204;2022-10-14T07:52:10;16.50;99.90
46488;DHT22;32202;48.780;9.204;2022-10-14T07:54:35;16.70;99.90
46488;DHT22;32202;48.780;9.204;2022-10-14T07:57:01;16.80;99.90
46488;DHT22;32202;48.780;9.204;2022-10-14T07:59:27;16.80;99.90
46488;DHT22;32202;48.780;9.204;2022-10-14T08:01:52;16.80;99.90
46488;DHT22;32202;48.780;9.204;2022-10-14T08:04:19;16.70;99.90
46488;DHT22;32202;48.780;9.204;2022-10-14T08:06:49;16.70;99.90
46488;DHT22;32202;48.780;9.204;2022-10-14T08:09:15;16.70;99.90
46488;DHT22;32202;48.780;9.204;2022-10-14T08:11:41;16.80;99.90
46488;DHT22;32202;48.780;9.204;2022-10-14T08:14:07;16.80;99.90
46488;DHT22;32202;48.780;9.204;2022-10-14T08:16:34;16.70;99.90
46488;DHT22;32202;48.780;9.204;2022-10-14T08:19:04;16.60;99.90
46488;DHT22;32202;48.780;9.204;2022-10-14T08:21:29;16.40;99.90
46488;DHT22;32202;48.780;9.204;2022-10-14T08:23:55;16.40;99.90
46488;DHT22;32202;48.780;9.204;2022-10-14T08:28:47;16.30;99.90
46488;DHT22;32202;48.780;9.204;2022-10-14T08:31:14;16.40;99.90
46488;DHT22;32202;48.780;9.204;2022-10-14T08:33:39;16.50;99.90
46488;DHT22;32202;48.780;9.204;2022-10-14T08:36:05;16.50;99.90
46488;DHT22;32202;48.780;9.204;2022-10-14T08:38:31;16.70;99.90
46488;DHT22;32202;48.780;9.204;2022-10-14T08:41:15;16.80;99.90
46488;DHT22;32202;48.780;9.204;2022-10-14T08:44:09;17.00;99.90
46488;DHT22;32202;48.780;9.204;2022-10-14T08:46:50;17.20;99.90
46488;DHT22;32202;48.780;9.204;2022-10-14T08:52:27;17.60;99.90
46488;DHT22;32202;48.780;9.204;2022-10-14T08:55:01;17.70;99.00
46488;DHT22;32202;48.780;9.204;2022-10-14T08:57:36;17.80;99.00
46488;DHT22;32202;48.780;9.204;2022-10-14T09:00:03;18.10;97.30
46488;DHT22;32202;48.780;9.204;2022-10-14T09:02:49;18.40;95.60
46488;DHT22;32202;48.780;9.204;2022-10-14T09:05:18;18.60;95.40
46488;DHT22;32202;48.780;9.204;2022-10-14T09:07:47;18.90;94.30
46488;DHT22;32202;48.780;9.204;2022-10-14T09:10:30;19.00;93.60
46488;DHT22;32202;48.780;9.204;2022-10-14T09:13:02;19.10;93.30
46488;DHT22;32202;48.780;9.204;2022-10-14T09:15:48;19.20;92.90
46488;DHT22;32202;48.780;9.204;2022-10-14T09:18:21;19.20;92.90
46488;DHT22;32202;48.780;9.204;2022-10-14T09:20:47;19.40;92.40
46488;DHT22;32202;48.780;9.204;2022-10-14T09:23:21;19.70;90.90
46488;DHT22;32202;48.780;9.204;2022-10-14T09:25:54;19.80;90.10
46488;DHT22;32202;48.780;9.204;2022-10-14T09:28:41;19.80;89.00
46488;DHT22;32202;48.780;9.204;2022-10-14T09:31:10;19.80;89.20
46488;DHT22;32202;48.780;9.204;2022-10-14T09:33:37;19.60;90.30
46488;DHT22;32202;48.780;9.204;2022-10-14T09:36:05;19.50;89.30
46488;DHT22;32202;48.780;9.204;2022-10-14T09:38:31;19.40;89.70
46488;DHT22;32202;48.780;9.204;2022-10-14T09:40:58;19.40;90.20
46488;DHT22;32202;48.780;9.204;2022-10-14T09:43:24;19.40;90.30
46488;DHT22;32202;48.780;9.204;2022-10-14T09:51:00;19.50;89.70
46488;DHT22;32202;48.780;9.204;2022-10-14T09:53:33;19.50;90.00
46488;DHT22;32202;48.780;9.204;2022-10-14T09:56:02;19.50;89.40
46488;DHT22;32202;48.780;9.204;2022-10-14T09:58:41;19.50;86.30
46488;DHT22;32202;48.780;9.204;2022-10-14T10:01:17;19.60;87.10
46488;DHT22;32202;48.780;9.204;2022-10-14T10:03:44;19.80;87.80
46488;DHT22;32202;48.780;9.204;2022-10-14T10:06:12;20.10;86.40
46488;DHT22;32202;48.780;9.204;2022-10-14T10:13:57;21.30;78.60
46488;DHT22;32202;48.780;9.204;2022-10-14T10:16:26;22.00;75.60
46488;DHT22;32202;48.780;9.204;2022-10-14T10:18:56;22.50;73.30
46488;DHT22;32202;48.780;9.204;2022-10-14T10:21:29;22.70;71.80
46488;DHT22;32202;48.780;9.204;2022-10-14T10:23:58;22.60;70.60
46488;DHT22;32202;48.780;9.204;2022-10-14T10:26:30;22.30;71.20
46488;DHT22;32202;48.780;9.204;2022-10-14T10:28:59;22.30;70.80
46488;DHT22;32202;48.780;9.204;2022-10-14T10:36:57;21.00;76.20
46488;DHT22;32202;48.780;9.204;2022-10-14T10:42:20;21.60;76.40
46488;DHT22;32202;48.780;9.204;2022-10-14T10:45:00;21.90;74.20
46488;DHT22;32202;48.780;9.204;2022-10-14T10:50:40;21.60;74.80
46488;DHT22;32202;48.780;9.204;2022-10-14T10:53:41;21.20;76.60
46488;DHT22;32202;48.780;9.204;2022-10-14T10:56:30;21.10;77.40
46488;DHT22;32202;48.780;9.204;2022-10-14T10:59:30;21.00;78.40
46488;DHT22;32202;48.780;9.204;2022-10-14T11:02:35;20.90;77.20
46488;DHT22;32202;48.780;9.204;2022-10-14T11:07:58;20.40;79.00
46488;DHT22;32202;48.780;9.204;2022-10-14T11:11:49;20.30;80.10
46488;DHT22;32202;48.780;9.204;2022-10-14T11:25:35;19.30;87.00
46488;DHT22;32202;48.780;9.204;2022-10-14T11:28:27;19.00;90.40
46488;DHT22;32202;48.780;9.204;2022-10-14T11:38:36;18.80;92.90
46488;DHT22;32202;48.780;9.204;2022-10-14T11:43:58;19.00;94.00
46488;DHT22;32202;48.780;9.204;2022-10-14T11:46:33;19.30;93.80
46488;DHT22;32202;48.780;9.204;2022-10-14T11:49:08;19.20;92.60
46488;DHT22;32202;48.780;9.204;2022-10-14T11:51:42;19.10;93.30
46488;DHT22;32202;48.780;9.204;2022-10-14T11:54:17;19.30;92.50
46488;DHT22;32202;48.780;9.204;2022-10-14T11:56:58;19.80;91.90
46488;DHT22;32202;48.780;9.204;2022-10-14T11:59:49;20.40;90.60
46488;DHT22;32202;48.780;9.204;2022-10-14T12:02:45;20.90;85.40
46488;DHT22;32202;48.780;9.204;2022-10-14T12:08:05;21.20;83.70
46488;DHT22;32202;48.780;9.204;2022-10-14T12:10:32;21.50;81.70
46488;DHT22;32202;48.780;9.204;2022-10-14T12:12:59;21.00;81.80
46488;DHT22;32202;48.780;9.204;2022-10-14T12:15:26;20.70;83.60
46488;DHT22;32202;48.780;9.204;2022-10-14T12:17:56;20.60;83.10
46488;DHT22;32202;48.780;9.204;2022-10-14T12:28:29;20.90;82.50
46488;DHT22;32202;48.780;9.204;2022-10-14T12:36:36;21.70;78.30
46488;DHT22;32202;48.780;9.204;2022-10-14T12:42:04;21.50;76.60
46488;DHT22;32202;48.780;9.204;2022-10-14T12:44:49;21.70;76.80
46488;DHT22;32202;48.780;9.204;2022-10-14T12:47:28;22.00;76.50
46488;DHT22;32202;48.780;9.204;2022-10-14T12:50:00;22.00;74.90
46488;DHT22;32202;48.780;9.204;2022-10-14T12:52:32;21.70;76.90
46488;DHT22;32202;48.780;9.204;2022-10-14T12:55:00;21.30;76.80
46488;DHT22;32202;48.780;9.204;2022-10-14T12:57:35;21.00;78.50
46488;DHT22;32202;48.780;9.204;2022-10-14T13:02:52;20.70;79.90
46488;DHT22;32202;48.780;9.204;2022-10-14T13:05:42;20.70;80.70
46488;DHT22;32202;48.780;9.204;2022-10-14T13:18:55;20.90;80.50
46488;DHT22;32202;48.780;9.204;2022-10-14T13:21:29;21.10;79.90
46488;DHT22;32202;48.780;9.204;2022-10-14T13:24:12;21.20;79.80
46488;DHT22;32202;48.780;9.204;2022-10-14T13:37:31;21.00;78.90
46488;DHT22;32202;48.780;9.204;2022-10-14T13:40:07;20.30;81.50
46488;DHT22;32202;48.780;9.204;2022-10-14T13:42:38;20.00;83.30
46488;DHT22;32202;48.780;9.204;2022-10-14T13:45:12;19.90;84.00
46488;DHT22;32202;48.780;9.204;2022-10-14T13:47:44;19.80;84.70
46488;DHT22;32202;48.780;9.204;2022-10-14T13:50:16;19.80;85.10
46488;DHT22;32202;48.780;9.204;2022-10-14T13:53:04;19.60;86.20
46488;DHT22;32202;48.780;9.204;2022-10-14T13:55:30;19.40;87.40
46488;DHT22;32202;48.780;9.204;2022-10-14T13:58:06;19.40;87.60
46488;DHT22;32202;48.780;9.204;2022-10-14T14:00:34;19.30;88.30
46488;DHT22;32202;48.780;9.204;2022-10-14T14:03:22;19.20;89.00
46488;DHT22;32202;48.780;9.204;2022-10-14T14:05:48;19.30;88.70
46488;DHT22;32202;48.780;9.204;2022-10-14T14:08:31;19.40;88.10
46488;DHT22;32202;48.780;9.204;2022-10-14T14:11:00;19.40;87.80
46488;DHT22;32202;48.780;9.204;2022-10-14T14:13:30;19.20;89.10
46488;DHT22;32202;48.780;9.204;2022-10-14T14:15:57;19.20;90.40
46488;DHT22;32202;48.780;9.204;2022-10-14T14:18:36;19.00;91.40
46488;DHT22;32202;48.780;9.204;2022-10-14T14:21:03;18.90;93.20
46488;DHT22;32202;48.780;9.204;2022-10-14T14:23:29;18.70;95.50
46488;DHT22;32202;48.780;9.204;2022-10-14T14:25:55;18.50;97.50
46488;DHT22;32202;48.780;9.204;2022-10-14T14:28:30;18.40;99.50
46488;DHT22;32202;48.780;9.204;2022-10-14T14:30:57;18.30;99.90
46488;DHT22;32202;48.780;9.204;2022-10-14T14:33:28;18.20;99.90
46488;DHT22;32202;48.780;9.204;2022-10-14T14:35:59;18.20;99.90
46488;DHT22;32202;48.780;9.204;2022-10-14T14:38:33;18.30;99.90
46488;DHT22;32202;48.780;9.204;2022-10-14T14:41:04;18.20;99.90
46488;DHT22;32202;48.780;9.204;2022-10-14T14:43:31;18.30;99.90
46488;DHT22;32202;48.780;9.204;2022-10-14T14:46:00;18.30;99.90
46488;DHT22;32202;48.780;9.204;2022-10-14T14:48:27;18.30;99.90
46488;DHT22;32202;48.780;9.204;2022-10-14T14:50:53;18.30;99.90
46488;DHT22;32202;48.780;9.204;2022-10-14T14:53:21;18.20;99.90
46488;DHT22;32202;48.780;9.204;2022-10-14T14:58:43;18.30;99.90
46488;DHT22;32202;48.780;9.204;2022-10-14T15:01:28;18.30;99.90
46488;DHT22;32202;48.780;9.204;2022-10-14T15:03:57;18.40;99.90
46488;DHT22;32202;48.780;9.204;2022-10-14T15:06:24;18.40;99.90
46488;DHT22;32202;48.780;9.204;2022-10-14T15:08:52;18.40;99.90
46488;DHT22;32202;48.780;9.204;2022-10-14T15:11:18;18.40;99.90
46488;DHT22;32202;48.780;9.204;2022-10-14T15:13:51;18.30;99.90
46488;DHT22;32202;48.780;9.204;2022-10-14T15:16:39;18.30;99.90
46488;DHT22;32202;48.780;9.204;2022-10-14T15:19:24;18.20;99.90
46488;DHT22;32202;48.780;9.204;2022-10-14T15:22:29;18.10;99.90
46488;DHT22;32202;48.780;9.204;2022-10-14T15:25:07;18.00;99.90
46488;DHT22;32202;48.780;9.204;2022-10-14T15:33:16;17.80;99.90
46488;DHT22;32202;48.780;9.204;2022-10-14T15:35:53;17.70;99.90
46488;DHT22;32202;48.780;9.204;2022-10-14T15:38:20;17.60;99.90
46488;DHT22;32202;48.780;9.204;2022-10-14T15:40:46;17.40;99.90
46488;DHT22;32202;48.780;9.204;2022-10-14T15:43:19;17.40;99.90
46488;DHT22;32202;48.780;9.204;2022-10-14T15:45:49;17.40;99.90
46488;DHT22;32202;48.780;9.204;2022-10-14T15:48:35;17.30;99.90
46488;DHT22;32202;48.780;9.204;2022-10-14T15:51:05;17.20;99.90
46488;DHT22;32202;48.780;9.204;2022-10-14T15:53:31;17.20;99.90
46488;DHT22;32202;48.780;9.204;2022-10-14T15:55:57;17.10;99.90
46488;DHT22;32202;48.780;9.204;2022-10-14T15:58:25;17.10;99.90
46488;DHT22;32202;48.780;9.204;2022-10-14T16:00:51;17.10;99.90
46488;DHT22;32202;48.780;9.204;2022-10-14T16:03:18;17.10;99.90
46488;DHT22;32202;48.780;9.204;2022-10-14T16:05:44;17.00;99.90
46488;DHT22;32202;48.780;9.204;2022-10-14T16:08:12;17.00;99.90
46488;DHT22;32202;48.780;9.204;2022-10-14T16:10:39;16.90;99.90
46488;DHT22;32202;48.780;9.204;2022-10-14T16:13:08;16.90;99.90
46488;DHT22;32202;48.780;9.204;2022-10-14T16:18:07;16.80;99.90
46488;DHT22;32202;48.780;9.204;2022-10-14T16:20:34;16.70;99.90
46488;DHT22;32202;48.780;9.204;2022-10-14T16:22:59;16.70;99.90
46488;DHT22;32202;48.780;9.204;2022-10-14T16:25:34;16.70;99.90
46488;DHT22;32202;48.780;9.204;2022-10-14T16:28:01;16.60;99.90
46488;DHT22;32202;48.780;9.204;2022-10-14T16:30:29;16.60;99.90
46488;DHT22;32202;48.780;9.204;2022-10-14T16:32:55;16.60;99.90
46488;DHT22;32202;48.780;9.204;2022-10-14T16:35:20;16.60;99.90
46488;DHT22;32202;48.780;9.204;2022-10-14T16:37:46;16.60;99.90
46488;DHT22;32202;48.780;9.204;2022-10-14T16:40:13;16.60;99.90
46488;DHT22;32202;48.780;9.204;2022-10-14T16:42:38;16.60;99.90
46488;DHT22;32202;48.780;9.204;2022-10-14T16:45:04;16.60;99.90
46488;DHT22;32202;48.780;9.204;2022-10-14T16:47:30;16.50;99.90
46488;DHT22;32202;48.780;9.204;2022-10-14T16:49:56;16.50;99.90
46488;DHT22;32202;48.780;9.204;2022-10-14T16:52:22;16.50;99.90
46488;DHT22;32202;48.780;9.204;2022-10-14T16:54:48;16.50;99.90
46488;DHT22;32202;48.780;9.204;2022-10-14T16:57:14;16.50;99.90
46488;DHT22;32202;48.780;9.204;2022-10-14T16:59:40;16.50;99.90
46488;DHT22;32202;48.780;9.204;2022-10-14T17:02:06;16.40;99.90
46488;DHT22;32202;48.780;9.204;2022-10-14T17:04:36;16.40;99.90
46488;DHT22;32202;48.780;9.204;2022-10-14T17:07:02;16.30;99.90
46488;DHT22;32202;48.780;9.204;2022-10-14T17:09:35;16.30;99.90
46488;DHT22;32202;48.780;9.204;2022-10-14T17:12:02;16.30;99.90
46488;DHT22;32202;48.780;9.204;2022-10-14T17:14:28;16.30;99.90
46488;DHT22;32202;48.780;9.204;2022-10-14T17:16:58;16.30;99.90
46488;DHT22;32202;48.780;9.204;2022-10-14T17:19:25;16.30;99.90
46488;DHT22;32202;48.780;9.204;2022-10-14T17:21:51;16.30;99.90
46488;DHT22;32202;48.780;9.204;2022-10-14T17:24:16;16.30;99.90
46488;DHT22;32202;48.780;9.204;2022-10-14T17:26:42;16.20;99.90
46488;DHT22;32202;48.780;9.204;2022-10-14T17:29:09;16.20;99.90
46488;DHT22;32202;48.780;9.204;2022-10-14T17:31:35;16.20;99.90
46488;DHT22;32202;48.780;9.204;2022-10-14T17:34:03;16.30;99.90
46488;DHT22;32202;48.780;9.204;2022-10-14T17:36:29;16.20;99.90
46488;DHT22;32202;48.780;9.204;2022-10-14T17:38:55;16.20;99.90
46488;DHT22;32202;48.780;9.204;2022-10-14T17:41:26;16.20;99.90
46488;DHT22;32202;48.780;9.204;2022-10-14T17:43:53;16.20;99.90
46488;DHT22;32202;48.780;9.204;2022-10-14T17:46:21;16.10;99.90
46488;DHT22;32202;48.780;9.204;2022-10-14T17:48:50;16.20;99.90
46488;DHT22;32202;48.780;9.204;2022-10-14T17:51:16;16.20;99.90
46488;DHT22;32202;48.780;9.204;2022-10-14T17:53:42;16.10;99.90
46488;DHT22;32202;48.780;9.204;2022-10-14T17:56:12;16.10;99.90
46488;DHT22;32202;48.780;9.204;2022-10-14T17:58:38;16.10;99.90
46488;DHT22;32202;48.780;9.204;2022-10-14T18:01:13;16.00;99.90
46488;DHT22;32202;48.780;9.204;2022-10-14T18:03:41;16.00;99.90
46488;DHT22;32202;48.780;9.204;2022-10-14T18:08:33;16.00;99.90